Terminal Aerodrome Forecast
Issued by NWS

Home | Current Version | Previous Version | Graphics & Text | Print | Product List | Glossary On
Versions: 1 2 3 4 5 6 7 8 9 10 11 12 13 14
000
FTUS43 KGRB 041720
TAFAUW
TAF
KAUW 041720Z 0418/0518 20005KT P6SM SCT040 SCT250
     FM050100 16003KT 6SM FU FEW045
     FM050400 VRB02KT 6SM FU SKC
      TEMPO 0509/0513 4SM BR
     FM051400 20008KT P6SM SCT040=

USA.gov is the U.S. government's official web portal to all federal, state and local government web resources and services.